Time;durP1;ratioP1;P1;durP2;ratioP2;P2;SDS_P1;SDS_P2;PMS_P1;PMS_P2;Temp;Humidity;BMP_temperature;BMP_pressure;BME280_temperature;BME280_humidity;BME280_pressure;Samples;Min_cycle;Max_cycle;Signal;HPM_P1;HPM_P2
2023/07/22 00:01:23;;;;;;;2.92;1.55;;;20.50;83.20;;;;;;5043913;28;20100;-77
2023/07/22 00:03:49;;;;;;;3.17;1.67;;;20.40;83.00;;;;;;5045968;28;20021;-79
2023/07/22 00:06:15;;;;;;;5.50;2.03;;;20.40;82.90;;;;;;5043364;28;20037;-79
2023/07/22 00:08:40;;;;;;;3.92;1.65;;;20.40;82.90;;;;;;5043289;28;20118;-79
2023/07/22 00:11:06;;;;;;;7.65;1.80;;;20.40;82.90;;;;;;5041222;28;20467;-79
2023/07/22 00:13:32;;;;;;;3.78;1.50;;;20.40;82.90;;;;;;5041449;28;20021;-78
2023/07/22 00:15:59;;;;;;;3.55;1.38;;;20.40;82.80;;;;;;5039573;28;20017;-79
2023/07/22 00:18:27;;;;;;;6.97;1.58;;;20.40;82.70;;;;;;5045246;28;20504;-79
2023/07/22 00:20:53;;;;;;;6.90;1.75;;;20.40;82.70;;;;;;5042933;28;20013;-78
2023/07/22 00:23:19;;;;;;;3.08;1.45;;;20.40;82.70;;;;;;5038131;28;20079;-79
2023/07/22 00:25:48;;;;;;;7.50;1.40;;;20.40;82.60;;;;;;5044725;28;20091;-79
2023/07/22 00:28:14;;;;;;;7.63;1.70;;;20.40;82.60;;;;;;5044004;28;20056;-79
2023/07/22 00:30:40;;;;;;;1.65;1.40;;;20.40;82.50;;;;;;5046869;28;20063;-79
2023/07/22 00:33:05;;;;;;;5.45;1.48;;;20.40;82.50;;;;;;5042350;28;20024;-79
2023/07/22 00:35:31;;;;;;;2.47;1.65;;;20.40;82.50;;;;;;5043070;28;20032;-79
2023/07/22 00:37:58;;;;;;;4.18;1.80;;;20.40;82.40;;;;;;5021936;28;20017;-79
2023/07/22 00:40:24;;;;;;;2.47;1.42;;;20.40;82.40;;;;;;5042402;28;20093;-79
2023/07/22 00:42:49;;;;;;;2.70;1.70;;;20.40;82.30;;;;;;5043015;28;20499;-79
2023/07/22 00:45:15;;;;;;;3.63;1.90;;;20.40;82.30;;;;;;5038035;28;20052;-79
2023/07/22 00:47:41;;;;;;;6.80;1.63;;;20.40;82.30;;;;;;5043868;28;20029;-78
2023/07/22 00:50:07;;;;;;;3.70;1.65;;;20.40;82.30;;;;;;5041015;28;20079;-78
2023/07/22 00:52:45;;;;;;;2.60;1.60;;;20.40;82.20;;;;;;5043539;28;20036;-79
2023/07/22 00:55:11;;;;;;;4.25;1.27;;;20.40;82.20;;;;;;5041319;28;20021;-79
2023/07/22 00:57:38;;;;;;;2.95;1.55;;;20.30;82.10;;;;;;5046350;28;20124;-79
2023/07/22 01:00:05;;;;;;;5.93;1.48;;;20.40;82.20;;;;;;5046221;28;20490;-79
2023/07/22 01:02:31;;;;;;;2.13;1.63;;;20.30;82.10;;;;;;5047065;28;20056;-79
2023/07/22 01:04:57;;;;;;;1.80;1.45;;;20.40;82.00;;;;;;5038935;28;20064;-78
2023/07/22 01:07:23;;;;;;;2.35;1.55;;;20.30;82.00;;;;;;5022327;28;20143;-79
2023/07/22 01:09:48;;;;;;;4.10;1.55;;;20.40;82.00;;;;;;5035676;28;20025;-79
2023/07/22 01:12:14;;;;;;;2.20;1.45;;;20.30;81.90;;;;;;5036949;28;20029;-79
2023/07/22 01:14:41;;;;;;;2.75;1.50;;;20.30;81.90;;;;;;5046146;28;20031;-78
2023/07/22 01:17:09;;;;;;;2.47;1.50;;;20.30;81.90;;;;;;5041499;28;20021;-79
2023/07/22 01:19:36;;;;;;;2.25;1.38;;;20.40;82.70;;;;;;5043397;28;20018;-79
2023/07/22 01:22:04;;;;;;;4.25;1.15;;;20.30;81.90;;;;;;5039851;28;20054;-78
2023/07/22 01:24:31;;;;;;;1.65;1.10;;;20.30;81.80;;;;;;5055230;28;20047;-78
2023/07/22 01:26:57;;;;;;;2.85;1.42;;;20.30;81.90;;;;;;5061899;28;20397;-79
2023/07/22 01:29:23;;;;;;;2.25;1.30;;;20.30;81.80;;;;;;5055959;28;20029;-79
2023/07/22 01:31:51;;;;;;;6.07;1.58;;;20.30;81.70;;;;;;5065628;28;20027;-79
2023/07/22 01:34:17;;;;;;;7.95;1.55;;;20.40;81.70;;;;;;5067887;28;20052;-79
2023/07/22 01:36:45;;;;;;;1.63;1.48;;;20.30;81.60;;;;;;5046542;28;20055;-79
2023/07/22 01:39:13;;;;;;;3.58;1.67;;;20.30;81.70;;;;;;5043876;28;20025;-79
2023/07/22 01:41:39;;;;;;;2.72;1.40;;;20.30;81.60;;;;;;5051309;28;20069;-78
2023/07/22 01:44:05;;;;;;;3.05;1.85;;;20.30;81.50;;;;;;5066642;28;20029;-79
2023/07/22 01:46:30;;;;;;;4.65;1.48;;;20.30;81.50;;;;;;5066306;28;20025;-78
2023/07/22 01:48:56;;;;;;;2.35;1.58;;;20.30;81.50;;;;;;5070171;28;20028;-79
2023/07/22 01:51:22;;;;;;;5.40;1.70;;;20.30;81.50;;;;;;5065576;28;20829;-79
2023/07/22 01:53:49;;;;;;;2.55;1.65;;;20.30;81.40;;;;;;5066578;28;20029;-79
2023/07/22 01:56:16;;;;;;;7.65;1.85;;;20.30;81.40;;;;;;5067107;28;20024;-78
2023/07/22 01:58:42;;;;;;;3.58;1.60;;;20.30;81.40;;;;;;5063445;28;20008;-79
2023/07/22 02:01:07;;;;;;;6.38;1.60;;;20.30;81.40;;;;;;5068720;28;20477;-79
2023/07/22 02:03:33;;;;;;;7.00;1.60;;;20.30;81.40;;;;;;5063256;28;20021;-79
2023/07/22 02:06:03;;;;;;;3.20;1.45;;;20.30;81.30;;;;;;5057814;28;20384;-79
2023/07/22 02:08:29;;;;;;;4.00;1.67;;;20.30;81.20;;;;;;5062821;28;20024;-79
2023/07/22 02:10:55;;;;;;;4.68;1.73;;;20.30;81.20;;;;;;5043783;28;20555;-79
2023/07/22 02:13:20;;;;;;;3.63;1.48;;;20.30;81.20;;;;;;5060536;28;20088;-79
2023/07/22 02:15:47;;;;;;;3.25;1.77;;;20.30;81.10;;;;;;5061741;28;20071;-79
2023/07/22 02:18:13;;;;;;;5.53;1.75;;;20.30;81.10;;;;;;5071083;28;20015;-79
2023/07/22 02:20:42;;;;;;;3.15;1.90;;;20.30;81.10;;;;;;5065960;28;20013;-79
2023/07/22 02:23:07;;;;;;;6.70;1.70;;;20.30;81.00;;;;;;5063869;28;20021;-78
2023/07/22 02:25:33;;;;;;;3.63;1.90;;;20.20;80.90;;;;;;5061027;28;20040;-79
2023/07/22 02:27:58;;;;;;;3.60;1.80;;;20.20;80.90;;;;;;5059320;28;20413;-78
2023/07/22 02:30:24;;;;;;;7.63;1.63;;;20.30;80.90;;;;;;5063512;28;20500;-79
2023/07/22 02:32:50;;;;;;;10.13;1.80;;;20.20;80.80;;;;;;5066739;28;20035;-79
2023/07/22 02:35:16;;;;;;;3.13;1.80;;;20.20;80.80;;;;;;5063156;28;20069;-78
2023/07/22 02:37:41;;;;;;;3.55;1.58;;;20.20;80.70;;;;;;5044620;28;20021;-80
2023/07/22 02:40:07;;;;;;;5.88;1.52;;;20.20;80.70;;;;;;5060936;28;20731;-78
2023/07/22 02:42:35;;;;;;;1.75;1.40;;;20.20;80.60;;;;;;5060690;28;20031;-79
2023/07/22 02:45:01;;;;;;;3.90;1.60;;;20.20;80.50;;;;;;5062760;28;20071;-79
2023/07/22 02:47:27;;;;;;;5.80;1.73;;;20.20;80.50;;;;;;5045807;28;20021;-79
2023/07/22 02:49:52;;;;;;;1.90;1.50;;;20.20;80.40;;;;;;5065741;28;20032;-79
2023/07/22 02:52:18;;;;;;;5.88;2.03;;;20.20;80.40;;;;;;5064597;28;20103;-79
2023/07/22 02:55:08;;;;;;;5.35;2.03;;;20.20;80.40;;;;;;5061584;28;20024;-79
2023/07/22 02:57:34;;;;;;;9.65;1.75;;;20.20;80.30;;;;;;5055366;28;20054;-78
2023/07/22 03:00:03;;;;;;;3.72;1.80;;;20.20;80.30;;;;;;5063336;28;20474;-79
2023/07/22 03:02:29;;;;;;;3.47;1.40;;;20.20;80.20;;;;;;5062638;28;20970;-78
2023/07/22 03:04:55;;;;;;;2.60;1.88;;;20.20;80.20;;;;;;5066905;28;20028;-79
2023/07/22 03:07:21;;;;;;;4.65;1.67;;;20.20;80.20;;;;;;5056260;28;20024;-78
2023/07/22 03:09:47;;;;;;;4.60;2.05;;;20.20;80.20;;;;;;5055395;28;20024;-80
2023/07/22 03:12:13;;;;;;;4.93;2.00;;;20.20;80.20;;;;;;5058126;28;20013;-79
2023/07/22 03:14:38;;;;;;;6.22;1.80;;;20.20;80.30;;;;;;5049192;28;20482;-79
2023/07/22 03:17:04;;;;;;;5.13;1.88;;;20.20;80.30;;;;;;5059468;28;20426;-79
2023/07/22 03:19:30;;;;;;;3.72;1.50;;;20.20;80.30;;;;;;5057783;28;20126;-79
2023/07/22 03:21:55;;;;;;;7.78;2.05;;;20.20;80.20;;;;;;5058286;28;20028;-79
2023/07/22 03:24:21;;;;;;;6.72;2.00;;;20.20;80.20;;;;;;5041223;28;20025;-79
2023/07/22 03:26:46;;;;;;;3.33;1.63;;;20.20;80.20;;;;;;5041675;28;20024;-79
2023/07/22 03:29:12;;;;;;;4.78;1.95;;;20.20;80.10;;;;;;5042455;28;20766;-79
2023/07/22 03:31:39;;;;;;;3.03;1.70;;;20.20;80.10;;;;;;5044395;28;20163;-79
2023/07/22 03:34:04;;;;;;;3.90;1.90;;;20.20;80.10;;;;;;5053014;28;20017;-80
2023/07/22 03:36:33;;;;;;;2.90;1.90;;;20.20;80.10;;;;;;5046168;28;20480;-78
2023/07/22 03:38:59;;;;;;;3.08;1.88;;;20.20;80.10;;;;;;5047292;28;20474;-79
2023/07/22 03:41:25;;;;;;;3.95;1.50;;;20.10;80.00;;;;;;5044647;28;20037;-79
2023/07/22 03:43:51;;;;;;;2.50;1.80;;;20.10;80.00;;;;;;5046918;28;20032;-79
2023/07/22 03:46:16;;;;;;;4.72;1.67;;;20.20;80.00;;;;;;5054108;28;20034;-79
2023/07/22 03:48:42;;;;;;;2.88;1.77;;;20.10;79.90;;;;;;5049442;28;20036;-79
2023/07/22 03:51:08;;;;;;;2.88;1.60;;;20.20;80.00;;;;;;5044823;28;20550;-79
2023/07/22 03:53:33;;;;;;;7.47;1.67;;;20.10;79.90;;;;;;5042508;28;20029;-80
2023/07/22 03:55:59;;;;;;;8.63;2.00;;;20.10;79.90;;;;;;5047255;28;20428;-79
2023/07/22 03:58:24;;;;;;;3.65;1.90;;;20.20;79.90;;;;;;5046598;28;20448;-79
2023/07/22 04:00:50;;;;;;;2.60;1.60;;;20.10;79.80;;;;;;5052278;28;20805;-79
2023/07/22 04:03:16;;;;;;;10.30;1.60;;;20.10;79.80;;;;;;5054031;28;20028;-78
2023/07/22 04:05:41;;;;;;;2.25;1.50;;;20.10;79.80;;;;;;5046696;28;20025;-79
2023/07/22 04:08:07;;;;;;;3.72;1.58;;;20.10;79.80;;;;;;5050014;28;20565;-81
2023/07/22 04:10:32;;;;;;;2.97;1.83;;;20.10;79.70;;;;;;5036803;28;20026;-79
2023/07/22 04:12:58;;;;;;;1.95;1.40;;;20.10;79.70;;;;;;5044384;28;20026;-78
2023/07/22 04:15:24;;;;;;;3.53;1.58;;;20.10;79.70;;;;;;5049932;28;20100;-79
2023/07/22 04:17:49;;;;;;;4.05;1.95;;;20.10;79.70;;;;;;5056292;28;20032;-80
2023/07/22 04:20:15;;;;;;;3.33;1.77;;;20.10;79.70;;;;;;5046039;28;20029;-79
2023/07/22 04:22:41;;;;;;;5.10;2.20;;;20.10;79.70;;;;;;5047893;28;20060;-79
2023/07/22 04:25:07;;;;;;;2.75;1.45;;;20.10;79.70;;;;;;5036861;28;20159;-79
2023/07/22 04:27:34;;;;;;;3.83;1.55;;;20.10;79.70;;;;;;5038625;28;20115;-79
2023/07/22 04:29:59;;;;;;;2.33;1.60;;;20.10;79.70;;;;;;5037768;28;20193;-79
2023/07/22 04:32:25;;;;;;;3.53;1.75;;;20.10;79.70;;;;;;5029952;28;20130;-79
2023/07/22 04:34:51;;;;;;;6.47;2.13;;;20.10;79.70;;;;;;5037169;28;20032;-80
2023/07/22 04:37:16;;;;;;;7.70;1.40;;;20.10;79.70;;;;;;5017384;28;20115;-79
2023/07/22 04:39:46;;;;;;;3.38;1.90;;;20.10;79.70;;;;;;5040176;28;20027;-79
2023/07/22 04:42:11;;;;;;;2.53;1.48;;;20.10;79.70;;;;;;5041173;28;20112;-79
2023/07/22 04:44:37;;;;;;;6.38;1.65;;;20.10;79.70;;;;;;5039161;28;20664;-78
2023/07/22 04:47:03;;;;;;;3.90;1.73;;;20.10;79.70;;;;;;5028889;28;20036;-79
2023/07/22 04:49:28;;;;;;;3.17;1.50;;;20.10;79.70;;;;;;5044056;28;20108;-79
2023/07/22 04:51:54;;;;;;;5.88;1.70;;;20.10;79.70;;;;;;5040874;28;20080;-79
2023/07/22 04:54:19;;;;;;;4.40;1.80;;;20.10;79.70;;;;;;5021098;28;20470;-77
2023/07/22 04:56:45;;;;;;;4.43;1.70;;;20.10;79.70;;;;;;5034537;28;20025;-79
2023/07/22 04:59:12;;;;;;;2.20;1.48;;;20.10;79.60;;;;;;5038828;28;20027;-79
2023/07/22 05:01:37;;;;;;;3.70;1.80;;;20.10;79.60;;;;;;5038972;28;20100;-79
2023/07/22 05:04:04;;;;;;;4.25;1.83;;;20.10;79.70;;;;;;5040929;28;20132;-79
2023/07/22 05:06:30;;;;;;;2.45;1.30;;;20.10;79.60;;;;;;5040236;28;20104;-79
2023/07/22 05:08:55;;;;;;;3.15;1.95;;;20.10;79.60;;;;;;5034857;28;20100;-80
2023/07/22 05:11:23;;;;;;;5.35;1.95;;;20.20;79.70;;;;;;5035359;28;20025;-77
2023/07/22 05:13:48;;;;;;;6.00;2.28;;;20.10;79.60;;;;;;5038666;28;20555;-79
2023/07/22 05:16:14;;;;;;;3.85;1.80;;;20.20;79.70;;;;;;5023041;28;20108;-80
2023/07/22 05:18:40;;;;;;;7.78;2.00;;;20.20;79.70;;;;;;5040197;28;20413;-80
2023/07/22 05:21:06;;;;;;;4.20;2.22;;;20.20;80.50;;;;;;5046885;28;20025;-80
2023/07/22 05:23:31;;;;;;;7.28;2.10;;;20.20;79.80;;;;;;5059371;28;20056;-80
2023/07/22 05:25:57;;;;;;;9.90;1.42;;;20.20;79.80;;;;;;5064362;28;20056;-79
2023/07/22 05:28:23;;;;;;;3.85;1.42;;;20.20;79.70;;;;;;5063073;28;20027;-78
2023/07/22 05:30:48;;;;;;;11.82;2.00;;;20.20;79.80;;;;;;5063503;28;20016;-80
2023/07/22 05:33:14;;;;;;;4.80;1.80;;;20.20;79.70;;;;;;5050038;28;20028;-79
2023/07/22 05:35:40;;;;;;;4.60;1.98;;;20.20;79.70;;;;;;5065484;28;20025;-79
2023/07/22 05:38:05;;;;;;;9.02;1.67;;;20.20;79.80;;;;;;5048437;28;20025;-80
2023/07/22 05:40:32;;;;;;;3.47;1.65;;;20.20;79.80;;;;;;5071907;28;20091;-79
2023/07/22 05:42:57;;;;;;;4.20;2.22;;;20.20;79.80;;;;;;5065608;28;20024;-77
2023/07/22 05:45:23;;;;;;;5.60;1.60;;;20.10;78.10;;;;;;5067509;28;20027;-77
2023/07/22 05:47:48;;;;;;;6.40;2.05;;;19.70;77.00;;;;;;5053581;28;20043;-77
2023/07/22 05:50:14;;;;;;;4.47;1.90;;;19.40;76.90;;;;;;5068660;28;20627;-77
2023/07/22 05:52:40;;;;;;;3.42;1.90;;;19.30;77.50;;;;;;5053359;28;20065;-77
2023/07/22 05:55:05;;;;;;;4.32;1.60;;;19.20;77.40;;;;;;5061335;28;20478;-77
2023/07/22 05:57:31;;;;;;;8.32;2.10;;;19.10;77.70;;;;;;5066356;28;20028;-78
2023/07/22 05:59:57;;;;;;;4.22;2.33;;;19.10;78.50;;;;;;5064958;28;20021;-76
2023/07/22 06:02:22;;;;;;;6.32;2.22;;;19.10;78.80;;;;;;5047892;28;20060;-80
2023/07/22 06:04:48;;;;;;;5.07;1.90;;;19.20;78.90;;;;;;5050215;28;20052;-80
2023/07/22 06:07:14;;;;;;;3.58;1.67;;;19.40;78.70;;;;;;5067160;28;20025;-80
2023/07/22 06:09:39;;;;;;;7.07;1.95;;;19.60;78.40;;;;;;5066029;28;20029;-79
2023/07/22 06:12:05;;;;;;;3.10;1.65;;;19.70;78.00;;;;;;5065419;28;20380;-80
2023/07/22 06:14:31;;;;;;;12.07;1.95;;;19.90;78.00;;;;;;5071379;28;20021;-80
2023/07/22 06:16:57;;;;;;;3.60;1.73;;;19.90;77.90;;;;;;5069967;28;20358;-81
2023/07/22 06:19:23;;;;;;;1.98;1.40;;;19.90;77.90;;;;;;5069725;28;20021;-80
2023/07/22 06:21:49;;;;;;;6.65;2.10;;;20.00;78.00;;;;;;5055046;28;20381;-80
2023/07/22 06:24:15;;;;;;;6.60;2.20;;;20.00;78.10;;;;;;5043094;28;20025;-80
2023/07/22 06:26:41;;;;;;;3.22;1.50;;;20.10;78.30;;;;;;5033714;28;20025;-80
2023/07/22 06:29:07;;;;;;;5.97;1.88;;;20.10;78.50;;;;;;5044504;28;20036;-80
2023/07/22 06:31:32;;;;;;;4.30;1.67;;;20.10;78.70;;;;;;5046170;28;20017;-80
2023/07/22 06:34:02;;;;;;;4.03;2.10;;;20.10;78.80;;;;;;5028231;28;20025;-81
2023/07/22 06:36:28;;;;;;;;;;;20.10;79.00;;;;;;5043950;28;20021;-81
2023/07/22 06:38:54;;;;;;;2.17;1.48;;;20.20;79.20;;;;;;5044763;28;20380;-81
2023/07/22 06:41:20;;;;;;;5.60;2.70;;;20.10;79.20;;;;;;5023207;28;20499;-81
2023/07/22 06:43:46;;;;;;;5.47;3.38;;;20.20;79.40;;;;;;5043629;28;20033;-81
2023/07/22 06:46:11;;;;;;;7.30;2.10;;;20.20;79.50;;;;;;5044167;28;20064;-81
2023/07/22 06:48:37;;;;;;;9.70;1.88;;;20.20;79.80;;;;;;5047159;28;20470;-81
2023/07/22 06:51:03;;;;;;;15.98;2.58;;;20.20;79.90;;;;;;5042614;28;20474;-81
2023/07/22 06:53:28;;;;;;;5.82;2.00;;;20.20;80.00;;;;;;5041364;28;20021;-80
2023/07/22 06:55:54;;;;;;;2.65;1.70;;;20.20;80.10;;;;;;5040065;28;20021;-81
2023/07/22 06:58:20;;;;;;;8.10;1.50;;;20.20;80.20;;;;;;5042673;28;20067;-81
2023/07/22 07:00:46;;;;;;;2.78;1.60;;;20.20;80.30;;;;;;5044047;28;20036;-81
2023/07/22 07:03:12;;;;;;;6.35;2.17;;;20.20;80.40;;;;;;5046233;28;20025;-80
2023/07/22 07:05:41;;;;;;;5.20;2.60;;;20.30;80.50;;;;;;5045754;28;20021;-81
2023/07/22 07:08:07;;;;;;;4.97;1.90;;;20.30;80.60;;;;;;5037976;28;20080;-80
2023/07/22 07:10:37;;;;;;;3.53;1.70;;;20.30;80.80;;;;;;5041391;28;20441;-79
2023/07/22 07:13:02;;;;;;;;;;;20.30;81.00;;;;;;5037854;28;20017;-79
2023/07/22 07:15:28;;;;;;;4.68;2.10;;;20.30;81.00;;;;;;5038728;28;19905;-79
2023/07/22 07:17:54;;;;;;;6.65;2.58;;;20.30;81.10;;;;;;5040315;28;20049;-81
2023/07/22 07:20:20;;;;;;;6.70;2.58;;;20.30;81.30;;;;;;5041316;28;20048;-80
2023/07/22 07:22:46;;;;;;;4.60;2.20;;;20.30;81.30;;;;;;5047366;28;20024;-80
2023/07/22 07:25:11;;;;;;;7.60;2.90;;;20.30;81.50;;;;;;5059795;28;20528;-80
2023/07/22 07:27:37;;;;;;;6.20;2.97;;;20.30;81.50;;;;;;5060810;28;20024;-80
2023/07/22 07:30:03;;;;;;;3.28;1.90;;;20.30;81.60;;;;;;5062010;28;20951;-80
2023/07/22 07:32:28;;;;;;;5.05;2.28;;;20.30;81.50;;;;;;5054997;28;20025;-81
2023/07/22 07:34:54;;;;;;;2.42;1.55;;;20.30;81.60;;;;;;5052369;28;20032;-80
2023/07/22 07:37:20;;;;;;;4.78;1.90;;;20.30;81.60;;;;;;5057753;28;20021;-81
2023/07/22 07:39:45;;;;;;;4.50;1.90;;;20.30;81.60;;;;;;5057666;28;20028;-81
2023/07/22 07:42:11;;;;;;;2.40;1.50;;;20.30;81.60;;;;;;5060291;28;20024;-80
2023/07/22 07:44:37;;;;;;;4.20;1.55;;;20.40;81.70;;;;;;5057646;28;20044;-80
2023/07/22 07:47:02;;;;;;;3.63;2.28;;;20.40;81.80;;;;;;5054842;28;20020;-81
2023/07/22 07:49:28;;;;;;;6.20;2.22;;;20.40;81.70;;;;;;5056154;28;20023;-81
2023/07/22 07:51:54;;;;;;;4.22;1.75;;;20.40;81.70;;;;;;5051883;28;20516;-81
2023/07/22 07:54:19;;;;;;;2.38;1.65;;;20.40;81.60;;;;;;5057280;28;20489;-80
2023/07/22 07:56:45;;;;;;;7.35;1.98;;;20.40;81.80;;;;;;5047070;28;20100;-81
2023/07/22 07:59:10;;;;;;;4.30;2.22;;;20.40;81.80;;;;;;5061714;28;20116;-80
2023/07/22 08:01:41;;;;;;;4.35;1.38;;;20.50;81.70;;;;;;5056642;28;20028;-77
2023/07/22 08:04:07;;;;;;;4.25;2.13;;;20.40;79.30;;;;;;5059867;28;20502;-77
2023/07/22 08:06:33;;;;;;;11.27;1.83;;;20.30;79.40;;;;;;5062276;28;20021;-77
2023/07/22 08:09:02;;;;;;;4.25;2.08;;;20.30;79.20;;;;;;5059737;28;20498;-77
2023/07/22 08:11:28;;;;;;;2.65;1.85;;;20.20;79.00;;;;;;5060297;28;20067;-78
2023/07/22 08:13:55;;;;;;;3.50;1.90;;;20.20;79.50;;;;;;5058423;28;20441;-77
2023/07/22 08:16:20;;;;;;;5.03;1.73;;;20.20;77.80;;;;;;5057529;28;20013;-78
2023/07/22 08:18:47;;;;;;;5.15;1.17;;;20.20;77.50;;;;;;5058917;28;20812;-76
2023/07/22 08:21:12;;;;;;;6.13;1.60;;;20.10;76.90;;;;;;5061425;28;20095;-77
2023/07/22 08:23:38;;;;;;;2.55;1.42;;;20.10;76.50;;;;;;5039325;28;20545;-76
2023/07/22 08:26:08;;;;;;;1.98;1.38;;;20.20;77.00;;;;;;5047129;28;20024;-77
2023/07/22 08:28:34;;;;;;;1.33;1.23;;;20.30;76.90;;;;;;5043038;28;20043;-77
2023/07/22 08:31:00;;;;;;;2.15;1.52;;;20.30;75.80;;;;;;5044814;28;20108;-78
2023/07/22 08:33:26;;;;;;;1.85;1.25;;;20.20;74.80;;;;;;5041136;28;20017;-78
2023/07/22 08:35:52;;;;;;;3.20;1.52;;;20.20;74.80;;;;;;5050122;28;20032;-78
2023/07/22 08:38:18;;;;;;;4.40;1.83;;;20.20;74.10;;;;;;5042163;28;20056;-78
2023/07/22 08:40:43;;;;;;;2.00;1.17;;;20.20;75.20;;;;;;5047730;28;20401;-77
2023/07/22 08:43:10;;;;;;;2.28;1.00;;;20.20;74.50;;;;;;5044206;28;20032;-78
2023/07/22 08:45:38;;;;;;;6.57;1.30;;;20.20;74.30;;;;;;5046416;28;20387;-78
2023/07/22 08:48:07;;;;;;;3.53;1.40;;;20.20;72.60;;;;;;5045667;28;20070;-77
2023/07/22 08:50:46;;;;;;;1.20;0.93;;;20.20;72.40;;;;;;5042962;28;20043;-76
2023/07/22 08:53:15;;;;;;;2.35;1.48;;;20.20;72.10;;;;;;5045377;28;20032;-79
2023/07/22 08:55:42;;;;;;;3.42;1.80;;;20.20;72.60;;;;;;5046967;28;20029;-77
2023/07/22 08:58:09;;;;;;;1.83;1.40;;;20.20;72.40;;;;;;5040768;28;20466;-78
2023/07/22 09:00:35;;;;;;;1.58;1.15;;;20.20;70.90;;;;;;5043068;28;20096;-79
2023/07/22 09:03:02;;;;;;;2.03;1.42;;;20.30;71.00;;;;;;5045561;28;20020;-79
2023/07/22 09:05:28;;;;;;;8.02;1.50;;;20.30;71.20;;;;;;5041522;28;20103;-78
2023/07/22 09:07:56;;;;;;;1.30;1.20;;;20.30;71.90;;;;;;5043160;28;20021;-78
2023/07/22 09:10:24;;;;;;;1.30;1.20;;;20.30;72.70;;;;;;5043705;28;20021;-78
2023/07/22 09:12:51;;;;;;;2.70;1.35;;;20.30;71.70;;;;;;5041488;28;20101;-77
2023/07/22 09:15:18;;;;;;;2.45;1.48;;;20.30;72.30;;;;;;5042467;28;20040;-78
2023/07/22 09:17:44;;;;;;;2.00;1.40;;;20.40;72.50;;;;;;5046994;28;20032;-78
2023/07/22 09:20:14;;;;;;;6.22;1.38;;;20.40;72.60;;;;;;5045969;28;20024;-86
2023/07/22 09:22:46;;;;;;;1.65;1.20;;;20.40;72.90;;;;;;5053886;28;20025;-83
2023/07/22 09:25:23;;;;;;;2.80;1.80;;;20.40;72.90;;;;;;5046817;28;20507;-87
2023/07/22 09:27:52;;;;;;;5.65;1.48;;;20.40;72.80;;;;;;5061123;28;20082;-84
2023/07/22 09:30:32;;;;;;;1.42;1.10;;;20.40;72.30;;;;;;5065068;28;20027;-85
2023/07/22 09:33:00;;;;;;;6.80;1.23;;;20.50;72.10;;;;;;5059277;28;20028;-83
2023/07/22 09:35:43;;;;;;;7.80;1.58;;;20.50;71.80;;;;;;5064521;28;20020;-84
2023/07/22 09:38:09;;;;;;;1.85;1.38;;;20.50;71.70;;;;;;5063164;28;20039;-86
2023/07/22 09:40:35;;;;;;;2.25;1.25;;;20.50;71.60;;;;;;5039415;28;20533;-85
2023/07/22 09:43:02;;;;;;;2.25;1.20;;;20.40;72.10;;;;;;5046611;28;20033;-85
2023/07/22 09:45:30;;;;;;;3.47;1.40;;;20.40;72.10;;;;;;5058736;28;20027;-85
2023/07/22 09:47:56;;;;;;;1.90;1.10;;;20.50;71.60;;;;;;5063591;28;20082;-85
2023/07/22 09:50:24;;;;;;;3.15;0.80;;;20.40;70.00;;;;;;5047146;28;20021;-83
2023/07/22 09:52:54;;;;;;;2.38;1.30;;;20.40;69.30;;;;;;5069280;28;20100;-86
2023/07/22 09:55:22;;;;;;;2.30;1.13;;;20.40;69.00;;;;;;5065416;28;20472;-86
2023/07/22 09:57:55;;;;;;;1.38;1.17;;;20.30;69.80;;;;;;5063598;28;20021;-84
2023/07/22 10:00:23;;;;;;;2.38;1.20;;;20.30;69.80;;;;;;5049364;28;20028;-85
2023/07/22 10:02:49;;;;;;;2.05;1.35;;;20.30;69.40;;;;;;5052211;28;20028;-85
2023/07/22 10:05:21;;;;;;;2.22;1.38;;;20.30;70.10;;;;;;5063706;28;20028;-86
2023/07/22 10:07:55;;;;;;;2.65;1.10;;;20.30;71.10;;;;;;5064303;28;20027;-85
2023/07/22 10:10:25;;;;;;;1.20;1.10;;;20.30;71.10;;;;;;5049771;28;20029;-85
2023/07/22 10:12:51;;;;;;;3.15;1.65;;;20.30;71.60;;;;;;5041453;28;20024;-84
2023/07/22 10:15:19;;;;;;;8.38;1.33;;;20.30;71.90;;;;;;5061137;28;20032;-85
2023/07/22 10:17:45;;;;;;;1.85;1.50;;;20.30;70.90;;;;;;5045608;28;20021;-85
2023/07/22 10:20:16;;;;;;;1.42;1.10;;;20.30;70.50;;;;;;5057944;28;20028;-85
2023/07/22 10:22:46;;;;;;;3.08;1.50;;;20.30;71.10;;;;;;5055743;28;20175;-85
2023/07/22 10:25:16;;;;;;;1.90;1.30;;;20.30;71.30;;;;;;5028978;28;20430;-85
2023/07/22 10:27:42;;;;;;;2.30;1.42;;;20.30;71.20;;;;;;5037895;28;20033;-84
2023/07/22 10:30:10;;;;;;;2.90;1.50;;;20.30;71.30;;;;;;5037116;28;20375;-85
2023/07/22 10:32:37;;;;;;;2.00;1.30;;;20.30;71.80;;;;;;5035160;28;20017;-85
2023/07/22 10:35:03;;;;;;;2.75;1.70;;;20.30;71.90;;;;;;5039295;28;20067;-85
2023/07/22 10:37:31;;;;;;;1.88;1.48;;;20.30;71.70;;;;;;5038326;28;20378;-85
2023/07/22 10:40:01;;;;;;;2.72;1.40;;;20.30;72.10;;;;;;5042747;28;20028;-85
2023/07/22 10:42:27;;;;;;;;;;;20.30;72.20;;;;;;5033951;28;20055;-85
2023/07/22 10:44:53;;;;;;;2.20;1.30;;;20.30;72.80;;;;;;5032506;28;19905;-85
2023/07/22 10:47:36;;;;;;;5.35;1.30;;;20.30;72.60;;;;;;5032413;28;20025;-83
2023/07/22 10:50:07;;;;;;;5.80;1.60;;;20.30;72.30;;;;;;5042530;28;20028;-84
2023/07/22 10:52:44;;;;;;;4.10;1.58;;;20.30;72.30;;;;;;5020867;28;20027;-85
2023/07/22 10:55:17;;;;;;;3.88;1.42;;;20.40;72.50;;;;;;5039533;28;20023;-84
2023/07/22 10:57:55;;;;;;;1.92;1.38;;;20.60;71.60;;;;;;5044248;28;20045;-84
2023/07/22 11:00:21;;;;;;;1.92;1.30;;;20.70;71.60;;;;;;5037039;28;20024;-85
2023/07/22 11:03:14;;;;;;;2.03;1.50;;;20.80;73.10;;;;;;5018726;28;20033;-85
2023/07/22 11:05:55;;;;;;;1.55;1.30;;;20.80;71.40;;;;;;5027621;28;20025;-83
2023/07/22 11:08:47;;;;;;;4.05;1.27;;;20.70;71.50;;;;;;5036148;28;20048;-83
2023/07/22 11:11:13;;;;;;;2.63;1.63;;;20.80;71.30;;;;;;5043147;28;20033;-85
2023/07/22 11:13:40;;;;;;;1.85;1.23;;;20.80;71.50;;;;;;5024602;28;20051;-85
2023/07/22 11:16:10;;;;;;;4.25;1.70;;;20.70;70.00;;;;;;5042970;28;20390;-84
2023/07/22 11:18:40;;;;;;;1.95;1.55;;;20.80;71.60;;;;;;5025501;28;20029;-86
2023/07/22 11:21:11;;;;;;;2.25;1.50;;;20.80;71.10;;;;;;5039682;28;20075;-86
2023/07/22 11:23:36;;;;;;;1.80;1.60;;;20.90;71.60;;;;;;5024092;28;20033;-86
2023/07/22 11:26:03;;;;;;;2.95;1.40;;;21.00;72.70;;;;;;5030839;28;20029;-86
2023/07/22 11:28:30;;;;;;;1.25;1.10;;;21.10;71.90;;;;;;5025415;28;20131;-85
2023/07/22 11:30:56;;;;;;;4.10;2.20;;;21.10;71.30;;;;;;5027976;28;20056;-83
2023/07/22 11:33:22;;;;;;;1.98;1.30;;;21.10;70.30;;;;;;5026290;28;20119;-85
2023/07/22 11:35:47;;;;;;;1.65;1.33;;;21.10;70.40;;;;;;5030935;28;20021;-83
2023/07/22 11:38:13;;;;;;;8.20;1.58;;;21.10;68.60;;;;;;5045625;28;20474;-85
2023/07/22 11:40:38;;;;;;;5.88;1.65;;;21.10;68.20;;;;;;5027157;28;20045;-85
2023/07/22 11:43:04;;;;;;;2.78;1.55;;;21.10;68.90;;;;;;5026800;28;20135;-85
2023/07/22 11:45:32;;;;;;;1.50;1.30;;;21.00;68.70;;;;;;5029869;28;20026;-84
2023/07/22 11:47:57;;;;;;;3.35;1.58;;;21.10;69.80;;;;;;5041813;28;20072;-85
2023/07/22 11:50:35;;;;;;;3.03;1.60;;;21.20;70.00;;;;;;5027008;28;20048;-84
2023/07/22 11:53:01;;;;;;;1.77;1.33;;;21.30;70.30;;;;;;5027960;28;20143;-81
2023/07/22 11:55:27;;;;;;;1.33;1.17;;;21.30;70.50;;;;;;5031011;28;20040;-83
2023/07/22 11:57:54;;;;;;;3.83;1.38;;;21.30;69.80;;;;;;5043329;28;20029;-84
2023/07/22 12:00:20;;;;;;;1.52;1.20;;;21.30;66.50;;;;;;5043600;28;20982;-84
2023/07/22 12:02:46;;;;;;;1.52;1.20;;;21.40;69.20;;;;;;5043379;28;20489;-85
2023/07/22 12:05:21;;;;;;;2.83;2.03;;;21.40;67.50;;;;;;5026102;28;20024;-85
2023/07/22 12:07:46;;;;;;;7.22;3.33;;;21.50;68.20;;;;;;5028010;28;20040;-83
2023/07/22 12:10:12;;;;;;;2.92;1.33;;;21.40;67.60;;;;;;5047012;28;20025;-84
2023/07/22 12:12:49;;;;;;;2.22;1.80;;;21.40;67.80;;;;;;5025508;28;20537;-84
2023/07/22 12:15:24;;;;;;;2.22;1.58;;;21.40;67.80;;;;;;5024784;28;20116;-85
2023/07/22 12:17:53;;;;;;;1.90;1.58;;;21.40;67.50;;;;;;5024822;28;20021;-85
2023/07/22 12:20:23;;;;;;;2.20;1.23;;;21.50;68.20;;;;;;5007329;28;20478;-84
2023/07/22 12:22:48;;;;;;;1.70;1.30;;;21.50;67.50;;;;;;5019591;28;20473;-85
2023/07/22 12:25:14;;;;;;;2.88;1.35;;;21.60;66.40;;;;;;5006995;28;20057;-82
2023/07/22 12:27:40;;;;;;;2.17;1.25;;;21.60;66.30;;;;;;5019548;28;20021;-84
2023/07/22 12:30:07;;;;;;;3.70;1.52;;;21.50;67.90;;;;;;5009634;28;20029;-84
2023/07/22 12:32:33;;;;;;;2.33;1.52;;;21.60;67.80;;;;;;5019270;28;20045;-84
2023/07/22 12:34:58;;;;;;;1.77;1.48;;;21.50;67.10;;;;;;5008673;28;20041;-85
2023/07/22 12:37:25;;;;;;;4.05;1.50;;;21.40;67.50;;;;;;5023823;28;20490;-85
2023/07/22 12:39:51;;;;;;;3.08;2.05;;;21.40;68.20;;;;;;5004640;28;20398;-84
2023/07/22 12:42:16;;;;;;;3.72;2.20;;;21.30;68.70;;;;;;5008296;28;20133;-84
2023/07/22 12:44:42;;;;;;;2.72;1.80;;;21.30;67.40;;;;;;5007809;28;20034;-85
2023/07/22 12:47:08;;;;;;;6.35;3.20;;;21.20;67.20;;;;;;5016391;28;20038;-85